createdAt,value
2022-12-18T06:15:14.209Z,0.373
2022-12-18T06:20:14.277Z,0.747
2022-12-18T06:25:14.379Z,2.241
2022-12-18T06:30:14.457Z,4.855
2022-12-18T06:35:14.593Z,11.952
2022-12-18T06:40:14.710Z,25.771
2022-12-18T06:45:14.779Z,52.663
2022-12-18T06:50:14.969Z,100.845
2022-12-18T06:55:15.073Z,175.545
2022-12-18T07:00:15.075Z,280.872
2022-12-18T07:05:15.188Z,418.32
2022-12-18T07:10:15.277Z,585.648
2022-12-18T07:15:15.401Z,770.904
2022-12-18T07:20:15.550Z,980.064
2022-12-18T07:25:15.628Z,1201.176
2022-12-18T07:30:15.659Z,1422.288
2022-12-18T07:35:17.471Z,1637.424
2022-12-18T07:40:15.901Z,1852.56
2022-12-18T07:45:15.990Z,2031.84
2022-12-18T07:50:16.120Z,2223.072
2022-12-18T07:55:16.209Z,2402.352
2022-12-18T07:58:55.296Z,3657.312
2022-12-18T08:05:01.645Z,9657.216
2022-12-18T08:10:01.732Z,10469.952
2022-12-18T08:15:01.817Z,11234.88
2022-12-18T08:20:02.039Z,12047.616
2022-12-18T08:25:02.107Z,12716.928
2022-12-18T08:30:02.195Z,13577.472
2022-12-18T08:35:02.345Z,14246.784
2022-12-18T08:40:02.396Z,15107.328
2022-12-18T08:45:02.516Z,15776.64
2022-12-18T08:50:02.533Z,16541.568
2022-12-18T08:55:02.603Z,17210.88
2022-12-18T09:00:02.811Z,17880.192
2022-12-18T09:05:02.819Z,18358.272
2022-12-18T09:10:02.963Z,19027.584
2022-12-18T09:15:03.053Z,19696.896
2022-12-18T09:20:03.167Z,20174.976
2022-12-18T09:25:03.274Z,20748.672
2022-12-18T09:30:03.346Z,21226.752
2022-12-18T09:35:03.454Z,21800.448
2022-12-18T09:40:03.558Z,22469.76
2022-12-18T09:45:03.895Z,23330.304
2022-12-18T09:50:03.732Z,23999.616
2022-12-18T09:55:03.895Z,25051.392
2022-12-18T10:00:54.177Z,25625.088
2022-12-18T10:06:14.414Z,26007.552
2022-12-18T10:11:59.743Z,25816.32
2022-12-18T10:21:50.038Z,26963.712
2022-12-18T10:26:50.133Z,27346.176
2022-12-18T10:31:05.322Z,27728.64
2022-12-18T10:36:16.472Z,27346.176
2022-12-18T10:41:21.653Z,27537.408
2022-12-18T10:46:21.485Z,27728.64
2022-12-18T10:51:21.611Z,27919.872
2022-12-18T10:55:11.155Z,28111.104
2022-12-18T11:01:27.625Z,28302.336
2022-12-18T11:11:28.050Z,27154.944
2022-12-18T11:16:28.262Z,28111.104
2022-12-18T11:21:27.284Z,26007.552
2022-12-18T11:25:31.897Z,27537.408
2022-12-18T11:27:54.530Z,24095.232
2022-12-18T11:30:40.861Z,19696.896
2022-12-18T11:33:17.151Z,27537.408
2022-12-18T11:36:28.305Z,28684.8
2022-12-18T11:39:18.514Z,24382.08
2022-12-18T11:46:11.516Z,29067.264
2022-12-18T11:51:36.456Z,28302.336
2022-12-18T11:56:29.821Z,24668.928
2022-12-18T11:59:29.877Z,22182.912
2022-12-18T12:02:36.600Z,21417.984
2022-12-18T12:06:31.532Z,17880.192
2022-12-18T12:09:15.002Z,15394.176
2022-12-18T12:13:40.668Z,14533.632
2022-12-18T12:16:13.417Z,14916.096
2022-12-18T12:20:23.267Z,17688.96
2022-12-18T12:25:38.005Z,16541.568
2022-12-18T12:28:08.106Z,15011.712
2022-12-18T12:31:07.699Z,13577.472
2022-12-18T12:33:47.003Z,19410.048
2022-12-18T12:40:53.692Z,19601.28
2022-12-18T12:45:00.556Z,17019.648
2022-12-18T12:49:02.129Z,15681.024
2022-12-18T12:54:02.242Z,17593.344
2022-12-18T12:57:32.419Z,17306.496
2022-12-18T13:02:36.982Z,18549.504
2022-12-18T13:06:53.265Z,14438.016
2022-12-18T13:10:22.403Z,11187.072
2022-12-18T13:12:55.726Z,9179.136
2022-12-18T13:16:24.686Z,8175.168
2022-12-18T13:18:57.732Z,7601.472
2022-12-18T13:22:11.587Z,10278.72
2022-12-18T13:25:15.236Z,9418.176
2022-12-18T13:29:14.974Z,8031.744
2022-12-18T13:31:48.041Z,8222.976
2022-12-18T13:35:57.998Z,9370.368
2022-12-18T13:38:46.323Z,8796.672
2022-12-18T13:42:53.877Z,5999.904
2022-12-18T13:45:57.648Z,4948.128
2022-12-18T13:48:35.798Z,4254.912
2022-12-18T13:51:34.362Z,3824.64
2022-12-18T13:57:57.827Z,3298.752
2022-12-18T14:06:10.827Z,3131.424
2022-12-18T14:08:54.123Z,3023.856
2022-12-18T14:11:27.159Z,2904.336
2022-12-18T14:14:20.597Z,2808.72
2022-12-18T14:17:44.669Z,2593.584
2022-12-18T14:20:38.158Z,2390.4
2022-12-18T14:23:26.508Z,2187.216
2022-12-18T14:26:30.517Z,2019.888
2022-12-18T14:29:44.089Z,1912.32
2022-12-18T14:32:18.238Z,1804.752
2022-12-18T14:34:55.323Z,1637.424
2022-12-18T14:37:38.610Z,1482.048
2022-12-18T14:40:11.738Z,1308.744
2022-12-18T14:43:05.196Z,1129.464
2022-12-18T14:46:29.374Z,926.28
2022-12-18T14:49:17.675Z,764.928
2022-12-18T14:52:21.412Z,615.528
2022-12-18T14:54:54.408Z,501.984
2022-12-18T14:57:47.867Z,394.416
2022-12-18T15:00:46.486Z,318.222
2022-12-18T15:03:50.287Z,258.462
2022-12-18T15:06:48.828Z,206.172
2022-12-18T15:09:32.080Z,162.846
2022-12-18T15:12:05.137Z,126.243
2022-12-18T15:14:48.470Z,92.254
2022-12-18T15:17:26.840Z,66.109
2022-12-18T15:19:59.688Z,46.687
2022-12-18T15:22:37.926Z,31.374
2022-12-18T15:25:16.174Z,20.169
2022-12-18T15:28:14.831Z,12.325
2022-12-18T15:31:38.960Z,7.096
2022-12-18T15:35:13.185Z,3.735
2022-12-18T15:38:06.652Z,2.614
2022-12-18T15:42:26.977Z,1.12
2022-12-18T15:45:30.680Z,0.373
2022-12-18T15:52:54.541Z,0
